Falcon AFB, Colorado
Current Conditions -  °F | °C
As of 7:54 PM on Friday 21 Nov 2014 (Local Time) from KCOS Reporting Station
Broken Clouds Broken Clouds  
Wind Chill: 26°   Ceiling: 22000
Heat Index: 33°   Visibility: 10mi
Dew Point: 19°   Wind: 8mph
Humidity: 56%   Direction: 20°NNE
Pressure: 30.02"   Gusts: NA
Location:  38.8334°N, 104.82°W
Report Text: KCOS 220254Z 02007KT 10SM BKN220 01/M07 A3002 RMK AO2 SLP185 T00061072 51012
Loading
Personal Weather Stations






























Interactive Weather Map New forecast layout! Learn more

10-Day Weather Forecast

Advertisements
Track Severe Weather on mobile